New Harbor, ME (Heathkit)

43° 52' 34"N, 69° 29' 40"W, Elevation 65 ft.
Eastern Time

Hourly observations for the last 72 hours

Date Time Temperature (°F) Humi-
dity

(%)
Wind
(mph)
Pressure Rain (in)
Air Dew 6 Hour 1 Hr 3 Hr 6 Hr Day
Alt
(in)
Sea
Level

(mb)
Max Min
17 03:00 62 58 86 SE 1 G 4 29.72 1006.5 0.00
17 02:00 62 57 65 59 85 E 1 G 5 29.74 1007.1 0.00
17 01:00 64 59 84 E 0 G 2 29.77 1008.2 0.00
17 00:00 65 60 84 E 0 G 1 29.78 1008.5 0.00
16 23:00 65 60 84 SE 0 G 2 29.79 1008.8 0.00
16 22:00 65 60 84 E 0 G 3 29.80 1009.2 0.00
16 21:00 65 60 83 S 2 G 4 29.81 1009.5 0.00
16 20:00 65 59 74 61 82 SSE 2 G 4 29.80 1009.2 0.00
16 19:00 67 60 79 SSE 2 G 7 29.80 1009.2 0.00
16 18:00 68 61 77 SSE 1 G 4 29.80 1009.2 0.00
16 17:00 70 62 76 S 4 G 8 29.81 1009.5 0.00
16 16:00 72 63 73 S 2 G 7 29.82 1009.9 0.00
16 15:00 73 63 70 S 4 G 7 29.83 1010.2 0.00
16 14:00 74 64 75 61 70 SE 2 G 6 29.83 1010.2 0.00
16 13:00 73 63 71 SSE 2 G 6 29.84 1010.5 0.00
16 12:00 74 64 70 SSE 3 G 10 29.85 1010.9 0.00
16 11:00 71 62 72 S 2 G 6 29.85 1010.9 0.00
16 10:00 68 61 78 E 1 G 2 29.86 1011.2 0.00
16 09:00 66 60 82 S 1 G 4 29.85 1010.9 0.00
16 08:00 65 60 65 56 85 SE 1 G 2 29.85 1010.9 0.00
16 07:00 63 59 86 E 0 G 2 29.85 1010.9 0.00
16 06:00 62 57 85 E 0 G 2 29.84 1010.5 0.00
16 05:00 61 56 85 SSE 0 G 1 29.83 1010.2 0.00
16 04:00 61 56 84 S 0 G 1 29.83 1010.2 0.00
16 03:00 62 57 84 SE 0 G 1 29.82 1009.9 0.00
16 02:00 61 56 67 60 84 ESE 0 G 2 29.83 1010.2 0.00
16 01:00 63 57 82 SW 1 G 2 29.83 1010.2 0.00
16 00:00 64 58 82 WSW 0 G 2 29.83 1010.2 0.00
15 23:00 65 59 82 S 0 G 3 29.82 1009.9 0.00
15 22:00 65 59 82 E 0 G 2 29.84 1010.5 0.00
15 21:00 65 59 80 E 0 G 2 29.84 1010.5 0.00
15 20:00 67 60 76 65 77 SSW 1 G 6 29.81 1009.5 0.00
15 19:00 69 60 74 SSE 2 G 5 29.81 1009.5 0.00
15 18:00 72 61 68 S 2 G 7 29.80 1009.2 0.00
15 17:00 75 62 64 S 4 G 9 29.80 1009.2 0.00
15 16:00 75 62 63 SSW 3 G 7 29.80 1009.2 0.00
15 15:00 76 63 64 S 4 G 9 29.80 1009.2 0.00
15 14:00 71 60 73 59 69 S 3 G 9 29.81 1009.5 0.00
15 13:00 73 62 68 ESE 1 G 5 29.84 1010.5 0.00
15 12:00 69 60 72 SE 1 G 2 29.84 1010.5 0.00
15 11:00 69 60 74 SSE 2 G 3 29.84 1010.5 0.00
15 10:00 65 59 80 S 1 G 2 29.84 1010.5 0.00
15 09:00 66 59 77 E 0 G 2 29.85 1010.9 0.00
15 08:00 65 59 65 57 80 S 2 G 4 29.85 1010.9 0.00
15 07:00 64 58 81 ESE 1 G 3 29.86 1011.2 0.00
15 06:00 63 57 82 E 0 G 2 29.86 1011.2 0.00
15 05:00 63 57 80 ESE 0 G 2 29.85 1010.9 0.00
15 04:00 63 57 80 S 2 G 4 29.87 1011.5 0.00
15 03:00 62 55 78 S 1 G 2 29.88 1011.9 0.00
15 02:00 63 56 63 57 78 S 2 G 4 29.88 1011.9 0.00
15 01:00 62 55 77 S 1 G 3 29.90 1012.6 0.00
15 00:00 63 56 77 S 1 G 3 29.90 1012.6 0.00
14 23:00 63 55 76 S 1 G 3 29.92 1013.2 0.00
14 22:00 63 57 80 WSW 1 G 2 29.94 1013.9 0.00
14 21:00 62 55 79 E 0 G 2 29.94 1013.9 0.00
14 20:00 63 55 69 59 76 ESE 0 G 2 29.93 1013.6 0.00
14 19:00 63 55 76 ESE 0 G 2 29.94 1013.9 0.00
14 18:00 64 56 75 S 1 G 2 29.95 1014.3 0.00
14 17:00 64 56 74 ESE 1 G 2 29.96 1014.6 0.00
14 16:00 65 56 72 E 1 G 4 29.97 1014.9 0.00
14 15:00 66 56 70 ESE 1 G 2 29.98 1015.3 0.00
14 14:00 69 56 71 60 63 S 2 G 4 30.02 1016.6 0.00
14 13:00 70 57 64 ESE 2 G 5 30.02 1016.6 0.00
14 12:00 70 57 63 SSE 2 G 5 30.02 1016.6 0.00
14 11:00 70 56 62 ESE 2 G 4 30.03 1017.0 0.00
14 10:00 69 57 65 E 1 G 4 30.04 1017.3 0.00
14 09:00 66 56 70 SSE 2 G 5 30.05 1017.6 0.00
14 08:00 61 56 61 50 83 SE 1 G 5 30.07 1018.3 0.00
14 07:00 58 54 85 ESE 1 G 2 30.06 1018.0 0.00
14 06:00 55 51 85 SE 0 G 2 30.06 1018.0 0.00
14 05:00 54 50 85 SSW 1 G 1 30.05 1017.6 0.00
14 04:00 55 51 85 ESE 1 G 3 30.06 1018.0 0.00

Data generated by WxSolution Version 1.9.1.5, Build 2018.05.20.